createdAt,value
2022-09-15T00:03:21.781Z,16.07
2022-09-15T00:08:25.736Z,16.02
2022-09-15T00:13:29.146Z,15.99
2022-09-15T00:18:34.110Z,15.97
2022-09-15T00:23:38.414Z,15.95
2022-09-15T00:28:42.918Z,15.94
2022-09-15T00:33:48.743Z,16.68
2022-09-15T00:38:54.984Z,17.12
2022-09-15T00:44:00.846Z,16.72
2022-09-15T00:49:18.117Z,16.42
2022-09-15T00:54:32.230Z,16.35
2022-09-15T00:59:38.114Z,16.20
2022-09-15T01:04:41.739Z,16.06
2022-09-15T01:10:15.208Z,15.96
2022-09-15T01:15:18.731Z,15.96
2022-09-15T01:20:45.036Z,16.03
2022-09-15T01:25:57.328Z,16.08
2022-09-15T01:31:13.122Z,16.11
2022-09-15T01:36:25.403Z,16.15
2022-09-15T01:41:55.983Z,16.16
2022-09-15T01:47:03.271Z,16.13
2022-09-15T01:52:08.381Z,16.11
2022-09-15T01:57:12.567Z,16.02
2022-09-15T02:02:29.826Z,15.87
2022-09-15T02:08:15.870Z,15.77
2022-09-15T02:13:54.351Z,15.70
2022-09-15T02:19:20.530Z,15.65
2022-09-15T02:24:30.870Z,15.62
2022-09-15T02:29:37.402Z,15.56
2022-09-15T02:34:47.182Z,15.52
2022-09-15T02:39:55.098Z,15.50
2022-09-15T02:45:00.321Z,15.49
2022-09-15T02:50:04.524Z,15.49
2022-09-15T02:55:08.198Z,15.49
2022-09-15T03:00:16.747Z,15.44
2022-09-15T03:05:22.668Z,15.30
2022-09-15T03:10:26.551Z,15.10
2022-09-15T03:15:29.692Z,14.93
2022-09-15T03:20:33.509Z,14.81
2022-09-15T03:25:36.955Z,14.71
2022-09-15T03:30:40.828Z,14.62
2022-09-15T03:35:48.096Z,14.55
2022-09-15T03:41:10.856Z,14.48
2022-09-15T03:46:22.737Z,14.43
2022-09-15T03:51:29.210Z,14.40
2022-09-15T03:56:33.180Z,14.38
2022-09-15T04:01:36.360Z,14.35
2022-09-15T04:06:39.683Z,14.29
2022-09-15T04:11:53.857Z,14.22
2022-09-15T04:16:58.105Z,14.16
2022-09-15T04:22:01.304Z,14.13
2022-09-15T04:27:04.720Z,14.08
2022-09-15T04:32:08.708Z,14.06
2022-09-15T04:37:12.538Z,14.04
2022-09-15T04:42:15.786Z,14.04
2022-09-15T04:47:19.735Z,14.03
2022-09-15T04:52:22.903Z,14.02
2022-09-15T04:57:26.164Z,14.00
2022-09-15T05:02:29.532Z,13.98
2022-09-15T05:07:32.866Z,13.97
2022-09-15T05:12:36.042Z,13.99
2022-09-15T05:17:39.537Z,14.05
2022-09-15T05:22:42.976Z,14.11
2022-09-15T05:27:46.142Z,14.19
2022-09-15T05:32:49.343Z,14.28
2022-09-15T05:37:54.765Z,14.41
2022-09-15T05:42:59.556Z,14.53
2022-09-15T05:48:04.389Z,14.67
2022-09-15T05:53:08.885Z,14.76
2022-09-15T05:58:12.538Z,14.86
2022-09-15T06:03:17.188Z,14.99
2022-09-15T06:08:21.047Z,15.13
2022-09-15T06:13:24.426Z,15.36
2022-09-15T06:18:27.802Z,15.73
2022-09-15T06:23:31.109Z,16.05
2022-09-15T06:28:34.304Z,16.09
2022-09-15T06:33:37.574Z,15.99
2022-09-15T06:38:41.971Z,15.82
2022-09-15T06:43:45.981Z,15.85
2022-09-15T06:48:49.479Z,16.04
2022-09-15T06:53:54.007Z,16.18
2022-09-15T06:58:57.213Z,16.25
2022-09-15T07:04:10.527Z,16.28
2022-09-15T07:09:13.964Z,16.39
2022-09-15T07:14:17.589Z,16.50
2022-09-15T07:19:21.427Z,16.64
2022-09-15T07:24:24.814Z,16.65
2022-09-15T07:29:27.963Z,16.68
2022-09-15T07:34:31.288Z,16.84
2022-09-15T07:39:34.450Z,16.98
2022-09-15T07:44:37.702Z,16.98
2022-09-15T07:49:41.230Z,16.87
2022-09-15T07:54:46.274Z,16.93
2022-09-15T07:59:49.525Z,17.04
2022-09-15T08:04:53.397Z,17.30
2022-09-15T08:09:56.585Z,17.53
2022-09-15T08:14:59.758Z,17.89
2022-09-15T08:20:04.009Z,18.28
2022-09-15T08:25:07.403Z,18.37
2022-09-15T08:30:11.548Z,18.44
2022-09-15T08:35:17.003Z,18.61
2022-09-15T08:40:24.705Z,18.80
2022-09-15T08:45:32.819Z,18.88
2022-09-15T08:50:39.916Z,18.98
2022-09-15T08:55:53.596Z,19.08
2022-09-15T09:01:36.795Z,19.66
2022-09-15T09:06:43.338Z,20.25
2022-09-15T09:12:01.945Z,20.20
2022-09-15T09:17:08.257Z,19.99
2022-09-15T09:22:15.820Z,19.97
2022-09-15T09:27:25.618Z,20.20
2022-09-15T09:32:51.668Z,20.56
2022-09-15T09:38:01.339Z,20.79
2022-09-15T09:43:06.189Z,20.90
2022-09-15T09:48:20.608Z,20.71
2022-09-15T09:53:32.351Z,20.41
2022-09-15T09:58:37.583Z,20.41
2022-09-15T10:03:42.126Z,20.77
2022-09-15T10:08:58.721Z,21.26
2022-09-15T10:14:02.280Z,21.62
2022-09-15T10:19:12.733Z,21.44
2022-09-15T10:24:34.925Z,21.54
2022-09-15T10:29:40.466Z,21.52
2022-09-15T10:34:49.125Z,21.03
2022-09-15T10:39:54.812Z,20.46
2022-09-15T10:45:11.323Z,20.00
2022-09-15T10:50:21.585Z,19.77
2022-09-15T10:55:54.859Z,19.68
2022-09-15T11:01:16.885Z,19.56
2022-09-15T11:06:33.264Z,19.69
2022-09-15T11:11:48.423Z,19.90
2022-09-15T11:17:28.402Z,20.23
2022-09-15T11:22:37.681Z,20.42
2022-09-15T11:27:45.357Z,20.51
2022-09-15T11:32:58.949Z,20.76
2022-09-15T11:38:36.296Z,20.96
2022-09-15T11:44:02.300Z,21.00
2022-09-15T11:49:16.295Z,20.87
2022-09-15T11:54:34.429Z,20.96
2022-09-15T11:59:58.803Z,21.09
2022-09-15T12:05:16.239Z,21.23
2022-09-15T12:10:24.887Z,21.42
2022-09-15T12:15:28.387Z,21.72
2022-09-15T12:20:37.894Z,21.77
2022-09-15T12:26:19.407Z,21.72
2022-09-15T12:31:37.597Z,21.48
2022-09-15T12:37:09.088Z,21.17
2022-09-15T12:42:25.519Z,21.08
2022-09-15T12:47:35.545Z,21.04
2022-09-15T12:52:51.814Z,20.86
2022-09-15T12:58:02.911Z,20.63
2022-09-15T13:03:28.666Z,20.53
2022-09-15T13:08:31.924Z,20.41
2022-09-15T13:13:56.262Z,20.32
2022-09-15T13:19:30.054Z,20.36
2022-09-15T13:25:01.389Z,20.46
2022-09-15T13:30:43.453Z,20.65
2022-09-15T13:35:52.819Z,21.01
2022-09-15T13:41:24.020Z,21.35
2022-09-15T13:46:49.367Z,21.49
2022-09-15T13:52:22.711Z,21.46
2022-09-15T14:02:52.914Z,20.41
2022-09-15T14:08:04.441Z,19.89
2022-09-15T14:13:07.816Z,19.49
2022-09-15T14:18:20.296Z,19.19
2022-09-15T14:23:26.677Z,18.93
2022-09-15T14:28:32.818Z,18.68
2022-09-15T14:33:42.522Z,18.50
2022-09-15T14:39:17.192Z,18.46
2022-09-15T14:50:20.498Z,18.77
2022-09-15T14:55:35.709Z,18.98
2022-09-15T15:00:53.985Z,19.12
2022-09-15T15:06:29.563Z,19.28
2022-09-15T15:11:42.315Z,19.43
2022-09-15T15:17:27.760Z,19.43
2022-09-15T15:22:38.797Z,19.23
2022-09-15T15:27:57.354Z,19.16
2022-09-15T15:33:15.110Z,19.18
2022-09-15T15:38:28.027Z,19.20
2022-09-15T15:43:39.036Z,19.07
2022-09-15T15:48:42.506Z,18.80
2022-09-15T15:53:46.021Z,18.54
2022-09-15T15:58:49.143Z,18.25
2022-09-15T16:04:03.365Z,17.99
2022-09-15T16:09:07.253Z,17.79
2022-09-15T16:14:14.889Z,17.64
2022-09-15T16:19:25.035Z,17.42
2022-09-15T16:24:29.430Z,17.23
2022-09-15T16:29:36.447Z,17.06
2022-09-15T16:34:40.114Z,16.92
2022-09-15T16:39:48.820Z,16.80
2022-09-15T16:45:02.879Z,16.68
2022-09-15T16:50:07.582Z,16.57
2022-09-15T16:55:19.404Z,16.48
2022-09-15T17:00:25.440Z,16.39
2022-09-15T17:05:39.959Z,16.32
2022-09-15T17:10:55.359Z,16.20
2022-09-15T17:16:03.046Z,16.07
2022-09-15T17:21:13.593Z,15.96
2022-09-15T17:26:27.628Z,15.82
2022-09-15T17:31:39.174Z,15.62
2022-09-15T17:36:42.680Z,15.39
2022-09-15T17:41:49.683Z,15.27
2022-09-15T17:46:53.627Z,15.83
2022-09-15T17:51:57.025Z,15.54
2022-09-15T17:57:00.460Z,15.27
2022-09-15T18:02:04.486Z,15.08
2022-09-15T18:07:20.660Z,14.89
2022-09-15T18:12:28.865Z,14.72
2022-09-15T18:17:32.789Z,14.57
2022-09-15T18:22:45.818Z,14.48
2022-09-15T18:28:02.264Z,14.43
2022-09-15T18:33:06.019Z,14.41
2022-09-15T18:38:15.519Z,14.37
2022-09-15T18:43:28.916Z,14.32
2022-09-15T18:48:38.146Z,14.27
2022-09-15T18:53:54.242Z,14.25
2022-09-15T18:59:09.922Z,14.20
2022-09-15T19:04:19.995Z,14.14
2022-09-15T19:09:30.572Z,14.05
2022-09-15T19:14:49.631Z,13.94
2022-09-15T19:20:35.935Z,13.85
2022-09-15T19:25:50.882Z,13.77
2022-09-15T19:31:00.039Z,13.70
2022-09-15T19:36:27.550Z,13.59
2022-09-15T19:41:39.089Z,13.45
2022-09-15T19:46:46.346Z,13.32
2022-09-15T19:51:55.618Z,13.19
2022-09-15T19:57:13.860Z,13.06
2022-09-15T20:02:23.583Z,12.97
2022-09-15T20:07:28.130Z,12.88
2022-09-15T20:12:35.326Z,12.81
2022-09-15T20:17:49.274Z,12.76
2022-09-15T20:22:54.583Z,12.71
2022-09-15T20:28:09.147Z,12.65
2022-09-15T20:33:28.528Z,12.59
2022-09-15T20:38:40.998Z,12.54
2022-09-15T20:43:55.319Z,12.57
2022-09-15T20:49:21.959Z,12.61
2022-09-15T20:54:26.086Z,12.68
2022-09-15T20:59:36.309Z,12.73
2022-09-15T21:04:58.719Z,12.76
2022-09-15T21:10:05.808Z,12.77
2022-09-15T21:15:09.720Z,12.77
2022-09-15T21:20:13.956Z,12.76
2022-09-15T21:25:20.366Z,12.73
2022-09-15T21:30:24.040Z,12.65
2022-09-15T21:35:27.447Z,12.56
2022-09-15T21:40:33.141Z,12.44
2022-09-15T21:45:42.679Z,12.31
2022-09-15T21:50:51.160Z,12.23
2022-09-15T21:55:55.127Z,12.13
2022-09-15T22:00:58.478Z,12.07
2022-09-15T22:06:02.157Z,12.01
2022-09-15T22:11:07.477Z,11.95
2022-09-15T22:16:19.217Z,11.91
2022-09-15T22:21:26.814Z,11.89
2022-09-15T22:26:32.515Z,11.87
2022-09-15T22:31:37.614Z,11.81
2022-09-15T22:36:42.053Z,11.76
2022-09-15T22:41:45.807Z,11.73
2022-09-15T22:46:58.204Z,11.76
2022-09-15T22:52:03.284Z,11.83
2022-09-15T22:57:07.480Z,11.95
2022-09-15T23:02:11.237Z,12.05
2022-09-15T23:07:15.121Z,12.15
2022-09-15T23:12:25.195Z,12.28
2022-09-15T23:17:29.895Z,12.40
2022-09-15T23:22:33.146Z,12.49
2022-09-15T23:27:37.246Z,12.57
2022-09-15T23:32:43.066Z,12.64
2022-09-15T23:37:48.083Z,12.69
2022-09-15T23:42:53.440Z,12.73
2022-09-15T23:47:56.743Z,12.76
2022-09-15T23:53:00.172Z,12.80
2022-09-15T23:58:05.142Z,12.81
